createdAt,value
2019-06-10T00:01:47.241Z,19.60
2019-06-10T00:04:13.317Z,19.50
2019-06-10T00:06:41.525Z,19.50
2019-06-10T00:09:08.126Z,19.50
2019-06-10T00:11:34.412Z,19.50
2019-06-10T00:14:02.467Z,19.50
2019-06-10T00:16:30.820Z,19.50
2019-06-10T00:18:56.444Z,19.50
2019-06-10T00:21:22.513Z,19.50
2019-06-10T00:23:48.564Z,19.40
2019-06-10T00:26:14.627Z,19.40
2019-06-10T00:28:40.777Z,19.40
2019-06-10T00:31:06.959Z,19.40
2019-06-10T00:33:33.339Z,19.40
2019-06-10T00:36:01.710Z,19.40
2019-06-10T00:38:27.368Z,19.30
2019-06-10T00:40:53.428Z,19.30
2019-06-10T00:43:21.419Z,19.20
2019-06-10T00:45:47.460Z,19.20
2019-06-10T00:48:24.285Z,19.20
2019-06-10T00:50:41.888Z,19.10
2019-06-10T00:53:09.923Z,19.00
2019-06-10T00:55:36.225Z,19.00
2019-06-10T00:58:02.936Z,19.00
2019-06-10T01:00:31.777Z,18.90
2019-06-10T01:02:58.009Z,18.80
2019-06-10T01:05:24.079Z,18.80
2019-06-10T01:07:50.852Z,18.70
2019-06-10T01:10:17.291Z,18.70
2019-06-10T01:12:43.360Z,18.60
2019-06-10T01:15:12.100Z,18.60
2019-06-10T01:17:37.591Z,18.60
2019-06-10T01:20:05.732Z,18.50
2019-06-10T01:22:32.033Z,18.50
2019-06-10T01:24:58.123Z,18.50
2019-06-10T01:27:24.205Z,18.40
2019-06-10T01:29:51.091Z,18.40
2019-06-10T01:32:17.688Z,18.40
2019-06-10T01:34:43.916Z,18.40
2019-06-10T01:37:11.754Z,18.30
2019-06-10T01:39:37.977Z,18.30
2019-06-10T01:42:04.040Z,18.30
2019-06-10T01:44:31.053Z,18.30
2019-06-10T01:46:57.381Z,18.30
2019-06-10T01:49:23.440Z,18.20
2019-06-10T01:51:51.637Z,18.20
2019-06-10T01:54:18.440Z,18.20
2019-06-10T01:56:44.735Z,18.20
2019-06-10T01:59:12.525Z,18.20
2019-06-10T02:01:57.352Z,18.20
2019-06-10T02:04:23.403Z,18.20
2019-06-10T02:06:51.130Z,18.20
2019-06-10T02:09:18.782Z,18.20
2019-06-10T02:11:45.395Z,18.20
2019-06-10T02:14:14.427Z,18.10
2019-06-10T02:16:41.434Z,18.10
2019-06-10T02:19:07.491Z,18.10
2019-06-10T02:21:33.551Z,18.00
2019-06-10T02:24:01.017Z,18.00
2019-06-10T02:26:27.296Z,17.90
2019-06-10T02:28:53.343Z,17.90
2019-06-10T02:31:29.065Z,17.90
2019-06-10T02:33:47.400Z,17.90
2019-06-10T02:36:17.319Z,17.80
2019-06-10T02:38:44.235Z,17.80
2019-06-10T02:41:09.398Z,17.70
2019-06-10T02:43:37.867Z,17.80
2019-06-10T02:46:04.949Z,17.70
2019-06-10T02:48:34.809Z,17.70
2019-06-10T02:51:03.897Z,17.60
2019-06-10T02:53:32.161Z,17.60
2019-06-10T02:55:57.710Z,17.60
2019-06-10T02:58:30.424Z,17.70
2019-06-10T03:00:54.652Z,17.60
2019-06-10T03:03:31.647Z,17.60
2019-06-10T03:05:47.677Z,17.60
2019-06-10T03:08:13.732Z,17.50
2019-06-10T03:10:39.806Z,17.50
2019-06-10T03:13:05.864Z,17.50
2019-06-10T03:15:33.826Z,17.50
2019-06-10T03:18:02.298Z,17.50
2019-06-10T03:20:28.421Z,17.50
2019-06-10T03:22:54.629Z,17.50
2019-06-10T03:25:22.998Z,17.40
2019-06-10T03:27:48.668Z,17.40
2019-06-10T03:30:20.873Z,17.40
2019-06-10T03:32:46.944Z,17.40
2019-06-10T03:35:13.249Z,17.50
2019-06-10T03:37:39.586Z,17.50
2019-06-10T03:40:06.249Z,17.50
2019-06-10T03:42:32.544Z,17.60
2019-06-10T03:44:58.788Z,17.60
2019-06-10T03:47:27.152Z,17.60
2019-06-10T03:49:56.006Z,17.60
2019-06-10T03:52:23.536Z,17.60
2019-06-10T03:54:48.847Z,17.70
2019-06-10T03:57:14.916Z,17.70
2019-06-10T03:59:42.189Z,17.80
2019-06-10T04:02:08.352Z,17.90
2019-06-10T04:04:34.432Z,17.90
2019-06-10T04:07:03.575Z,18.00
2019-06-10T04:09:28.869Z,18.10
2019-06-10T04:11:55.120Z,18.10
2019-06-10T04:14:22.412Z,18.10
2019-06-10T04:16:49.150Z,18.20
2019-06-10T04:19:15.220Z,18.30
2019-06-10T04:21:43.287Z,18.30
2019-06-10T04:24:09.249Z,18.30
2019-06-10T04:26:35.300Z,18.30
2019-06-10T04:29:02.484Z,18.20
2019-06-10T04:31:29.763Z,18.10
2019-06-10T04:33:56.003Z,18.10
2019-06-10T04:36:24.500Z,18.00
2019-06-10T04:38:52.351Z,18.00
2019-06-10T04:41:18.341Z,18.00
2019-06-10T04:43:44.596Z,18.00
2019-06-10T04:46:12.589Z,18.00
2019-06-10T04:48:38.632Z,18.00
2019-06-10T04:51:04.697Z,18.00
2019-06-10T04:53:32.997Z,18.00
2019-06-10T04:55:58.725Z,18.00
2019-06-10T04:58:27.577Z,18.00
2019-06-10T05:00:52.744Z,18.00
2019-06-10T05:03:18.951Z,18.10
2019-06-10T05:05:45.184Z,18.10
2019-06-10T05:08:13.167Z,18.20
2019-06-10T05:10:39.260Z,18.20
2019-06-10T05:13:05.333Z,18.20
2019-06-10T05:15:34.634Z,18.30
2019-06-10T05:17:59.377Z,18.30
2019-06-10T05:20:43.673Z,18.30
2019-06-10T05:22:53.406Z,18.30
2019-06-10T05:25:20.370Z,18.20
2019-06-10T05:27:47.543Z,18.20
2019-06-10T05:30:14.020Z,18.20
2019-06-10T05:32:40.073Z,18.20
2019-06-10T05:35:06.248Z,18.30
2019-06-10T05:37:33.855Z,18.40
2019-06-10T05:40:02.184Z,18.40
2019-06-10T05:42:29.309Z,18.60
2019-06-10T05:44:56.271Z,18.60
2019-06-10T05:47:25.049Z,18.70
2019-06-10T05:49:52.799Z,18.80
2019-06-10T05:52:18.344Z,18.90
2019-06-10T05:54:44.412Z,19.00
2019-06-10T05:57:12.083Z,19.10
2019-06-10T05:59:38.348Z,19.20
2019-06-10T06:02:04.423Z,19.30
2019-06-10T06:04:32.574Z,19.40
2019-06-10T06:06:58.446Z,19.50
2019-06-10T06:09:25.145Z,19.50
2019-06-10T06:11:52.399Z,19.60
2019-06-10T06:14:18.608Z,19.60
2019-06-10T06:16:44.681Z,19.70
2019-06-10T06:19:12.601Z,19.80
2019-06-10T06:21:42.684Z,19.80
2019-06-10T06:24:06.823Z,19.80
2019-06-10T06:26:37.421Z,19.90
2019-06-10T06:29:02.236Z,20.00
2019-06-10T06:31:28.480Z,20.00
2019-06-10T06:33:54.542Z,20.10
2019-06-10T06:36:22.657Z,20.20
2019-06-10T06:38:48.573Z,20.20
2019-06-10T06:41:14.637Z,20.40
2019-06-10T06:43:44.857Z,20.50
2019-06-10T06:46:08.664Z,20.60
2019-06-10T06:48:38.506Z,20.70
2019-06-10T06:51:08.190Z,20.80
2019-06-10T06:53:42.103Z,20.90
2019-06-10T06:55:58.725Z,21.00
2019-06-10T06:58:24.784Z,21.00
2019-06-10T07:01:01.871Z,21.00
2019-06-10T07:03:18.840Z,21.10
2019-06-10T07:05:45.245Z,21.00
2019-06-10T07:08:13.163Z,20.90
2019-06-10T07:10:41.412Z,20.80
2019-06-10T07:13:07.747Z,20.70
2019-06-10T07:15:41.100Z,20.60
2019-06-10T07:18:08.436Z,20.50
2019-06-10T07:20:37.607Z,20.50
2019-06-10T07:23:02.803Z,20.50
2019-06-10T07:25:28.932Z,20.60
2019-06-10T07:27:54.989Z,20.70
2019-06-10T07:30:23.037Z,20.80
2019-06-10T07:32:49.020Z,20.60
2019-06-10T07:35:15.099Z,20.40
2019-06-10T07:37:43.950Z,20.10
2019-06-10T07:40:09.220Z,20.00
2019-06-10T07:42:36.331Z,19.90
2019-06-10T07:45:05.351Z,19.80
2019-06-10T07:47:32.671Z,19.80
2019-06-10T07:49:59.422Z,19.80
2019-06-10T07:52:25.477Z,19.90
2019-06-10T07:54:52.910Z,19.90
2019-06-10T07:57:19.291Z,20.00
2019-06-10T07:59:46.071Z,20.00
2019-06-10T08:02:12.487Z,20.10
2019-06-10T08:04:39.770Z,20.20
2019-06-10T08:07:06.633Z,20.30
2019-06-10T08:09:35.577Z,20.40
2019-06-10T08:12:03.481Z,20.50
2019-06-10T08:14:28.629Z,20.60
2019-06-10T08:16:54.679Z,20.70
2019-06-10T08:19:33.821Z,20.70
2019-06-10T08:21:49.646Z,20.70
2019-06-10T08:24:15.950Z,20.60
2019-06-10T08:26:43.670Z,20.60
2019-06-10T08:29:12.560Z,20.50
2019-06-10T08:31:38.818Z,20.50
2019-06-10T08:34:05.117Z,20.50
2019-06-10T08:36:33.289Z,20.50
2019-06-10T08:38:59.142Z,20.60
2019-06-10T08:41:25.212Z,20.60
2019-06-10T08:43:52.877Z,20.70
2019-06-10T08:46:19.229Z,20.90
2019-06-10T08:48:47.698Z,21.10
2019-06-10T08:51:13.256Z,21.30
2019-06-10T09:05:57.685Z,22.50
2019-06-10T09:08:23.928Z,22.60
2019-06-10T09:10:54.191Z,22.70
2019-06-10T09:13:17.984Z,23.00
2019-06-10T09:15:50.844Z,23.20
2019-06-10T09:18:14.510Z,23.60
2019-06-10T09:20:41.466Z,23.90
2019-06-10T09:23:21.012Z,24.20
2019-06-10T09:25:35.957Z,24.50
2019-06-10T09:28:02.490Z,24.80
2019-06-10T09:30:28.989Z,25.00
2019-06-10T09:32:56.497Z,25.20
2019-06-10T09:35:24.087Z,25.40
2019-06-10T09:37:53.167Z,25.60
2019-06-10T09:40:19.367Z,25.80
2019-06-10T09:42:48.117Z,26.00
2019-06-10T09:45:14.407Z,26.10
2019-06-10T09:47:46.746Z,26.20
2019-06-10T09:50:12.333Z,26.30
2019-06-10T09:52:38.492Z,26.40
2019-06-10T09:55:05.663Z,26.40
2019-06-10T09:57:32.160Z,26.50
2019-06-10T09:59:58.496Z,26.60
2019-06-10T10:02:24.657Z,26.80
2019-06-10T10:04:53.892Z,26.80
2019-06-10T10:07:19.276Z,27.00
2019-06-10T10:09:49.809Z,27.10
2019-06-10T10:12:13.537Z,27.20
2019-06-10T10:14:39.593Z,27.30
2019-06-10T10:17:05.674Z,27.40
2019-06-10T10:19:32.491Z,27.50
2019-06-10T10:21:58.734Z,27.60
2019-06-10T10:24:24.942Z,27.70
2019-06-10T10:26:55.934Z,27.70
2019-06-10T10:31:48.982Z,27.90
2019-06-10T10:39:08.072Z,28.50
2019-06-10T10:41:34.728Z,28.60
2019-06-10T10:44:02.914Z,28.60
2019-06-10T10:46:28.760Z,28.70
2019-06-10T10:48:56.481Z,28.80
2019-06-10T10:51:23.184Z,28.80
2019-06-10T10:54:16.943Z,29.00
2019-06-10T11:47:55.476Z,31.50
2019-06-10T11:50:23.258Z,31.50
2019-06-10T11:52:50.205Z,31.50
2019-06-10T11:55:19.239Z,31.50
2019-06-10T11:57:45.567Z,31.50
2019-06-10T12:00:16.643Z,31.60
2019-06-10T12:02:42.353Z,31.60
2019-06-10T12:05:09.548Z,31.60
2019-06-10T12:07:35.609Z,31.70
2019-06-10T12:10:08.161Z,31.70
2019-06-10T12:12:34.222Z,31.80
2019-06-10T12:15:01.471Z,31.70
2019-06-10T12:17:41.768Z,31.60
2019-06-10T12:19:59.586Z,31.60
2019-06-10T12:22:23.693Z,31.60
2019-06-10T12:24:50.320Z,31.70
2019-06-10T12:27:16.605Z,31.80
2019-06-10T12:29:42.682Z,32.00
2019-06-10T12:32:08.736Z,32.20
2019-06-10T12:34:34.814Z,32.30
2019-06-10T12:37:10.020Z,32.50
2019-06-10T12:39:28.846Z,32.60
2019-06-10T12:41:57.893Z,32.80
2019-06-10T12:44:22.942Z,32.80
2019-06-10T12:46:49.044Z,32.90
2019-06-10T12:49:18.257Z,32.90
2019-06-10T12:51:43.109Z,32.90
2019-06-10T12:54:09.192Z,32.90
2019-06-10T12:56:35.240Z,32.90
2019-06-10T12:59:06.801Z,32.90
2019-06-10T13:01:29.454Z,32.90
2019-06-10T13:03:55.689Z,33.00
2019-06-10T13:06:23.565Z,33.10
2019-06-10T13:08:53.123Z,33.20
2019-06-10T13:11:19.454Z,33.40
2019-06-10T13:16:14.149Z,33.60
2019-06-10T13:18:39.915Z,33.70
2019-06-10T13:21:11.607Z,33.70
2019-06-10T13:23:36.093Z,33.70
2019-06-10T13:26:07.164Z,33.70
2019-06-10T13:28:32.267Z,33.70
2019-06-10T13:30:58.999Z,33.80
2019-06-10T13:33:25.243Z,33.90
2019-06-10T13:35:53.529Z,34.10
2019-06-10T13:38:19.376Z,34.20
2019-06-10T13:40:45.442Z,34.30
2019-06-10T13:43:12.344Z,34.30
2019-06-10T13:45:39.266Z,34.30
2019-06-10T13:48:08.335Z,34.40
2019-06-10T13:50:33.383Z,34.40
2019-06-10T13:53:00.589Z,34.50
2019-06-10T13:55:27.618Z,34.50
2019-06-10T13:57:53.844Z,34.50
2019-06-10T14:00:22.876Z,34.40
2019-06-10T14:02:52.124Z,34.30
2019-06-10T14:05:18.465Z,34.10
2019-06-10T14:07:44.885Z,33.70
2019-06-10T14:10:17.781Z,33.40
2019-06-10T14:12:40.312Z,33.00
2019-06-10T14:15:09.180Z,32.80
2019-06-10T14:17:34.640Z,32.50
2019-06-10T14:20:01.746Z,32.30
2019-06-10T14:22:28.029Z,32.20
2019-06-10T14:24:54.098Z,32.10
2019-06-10T14:27:21.647Z,31.90
2019-06-10T14:29:48.224Z,31.70
2019-06-10T14:32:15.763Z,31.50
2019-06-10T14:34:42.145Z,31.40
2019-06-10T14:37:08.340Z,31.30
2019-06-10T14:39:34.388Z,31.20
2019-06-10T14:42:00.465Z,31.10
2019-06-10T14:44:26.530Z,31.10
2019-06-10T14:46:53.015Z,31.10
2019-06-10T14:49:19.247Z,31.00
2019-06-10T14:51:45.312Z,31.00
2019-06-10T14:54:12.128Z,31.00
2019-06-10T14:56:50.568Z,31.00
2019-06-10T14:59:07.544Z,31.00
2019-06-10T15:01:33.765Z,31.10
2019-06-10T15:03:59.825Z,31.10
2019-06-10T15:06:25.892Z,31.10
2019-06-10T15:08:53.334Z,31.20
2019-06-10T15:11:20.100Z,31.30
2019-06-10T15:13:46.981Z,31.20
2019-06-10T15:16:14.254Z,31.20
2019-06-10T15:18:40.428Z,31.20
2019-06-10T15:21:06.492Z,31.10
2019-06-10T15:23:32.696Z,31.00
2019-06-10T15:25:58.851Z,31.00
2019-06-10T15:28:25.013Z,30.80
2019-06-10T15:30:52.429Z,30.80
2019-06-10T15:33:19.721Z,30.70
2019-06-10T15:35:45.929Z,30.70
2019-06-10T15:38:14.869Z,30.60
2019-06-10T15:40:39.957Z,30.60
2019-06-10T15:43:06.423Z,30.50
2019-06-10T15:45:32.755Z,30.50
2019-06-10T15:47:58.814Z,30.40
2019-06-10T15:50:27.487Z,30.40
2019-06-10T15:52:52.884Z,30.40
2019-06-10T15:55:42.460Z,30.40
2019-06-10T15:57:46.915Z,30.40
2019-06-10T16:00:17.696Z,30.40
2019-06-10T16:02:41.680Z,30.40
2019-06-10T16:05:08.164Z,30.30
2019-06-10T16:07:34.248Z,30.20
2019-06-10T16:10:02.714Z,30.10
2019-06-10T16:12:28.268Z,29.80
2019-06-10T16:14:54.329Z,29.50
2019-06-10T16:17:21.125Z,29.20
2019-06-10T16:19:47.261Z,29.00
2019-06-10T16:22:14.202Z,28.80
2019-06-10T16:24:42.316Z,28.80
2019-06-10T16:27:08.548Z,28.80
2019-06-10T16:29:34.628Z,28.70
2019-06-10T16:32:02.525Z,28.70
2019-06-10T16:34:29.845Z,28.50
2019-06-10T16:36:56.314Z,28.40
2019-06-10T16:39:24.177Z,28.40
2019-06-10T16:41:52.286Z,28.40
2019-06-10T16:44:19.966Z,28.30
2019-06-10T16:46:46.820Z,28.30
2019-06-10T16:49:13.024Z,28.20
2019-06-10T16:51:39.191Z,28.20
2019-06-10T16:54:05.325Z,28.10
2019-06-10T16:56:33.611Z,28.00
2019-06-10T16:58:59.367Z,27.90
2019-06-10T17:01:27.313Z,27.80
2019-06-10T17:03:53.459Z,27.70
2019-06-10T17:06:22.020Z,27.60
2019-06-10T17:08:47.493Z,27.60
2019-06-10T17:11:13.547Z,27.50
2019-06-10T17:13:42.065Z,27.40
2019-06-10T17:16:07.671Z,27.30
2019-06-10T17:18:33.941Z,27.20
2019-06-10T17:21:02.659Z,27.20
2019-06-10T17:23:33.347Z,27.10
2019-06-10T17:25:56.638Z,26.90
2019-06-10T17:28:28.326Z,26.70
2019-06-10T17:30:53.058Z,26.50
2019-06-10T17:35:47.669Z,26.20
2019-06-10T17:38:13.739Z,26.10
2019-06-10T17:40:39.908Z,26.00
2019-06-10T17:43:06.072Z,25.80
2019-06-10T17:45:32.260Z,25.70
2019-06-10T17:47:58.400Z,25.60
2019-06-10T17:50:25.286Z,25.60
2019-06-10T17:52:53.386Z,25.60
2019-06-10T17:55:19.805Z,25.60
2019-06-10T17:57:47.533Z,25.50
2019-06-10T18:00:14.911Z,25.50
2019-06-10T18:02:42.629Z,25.30
2019-06-10T18:05:09.336Z,25.20
2019-06-10T18:07:35.815Z,25.10
2019-06-10T18:10:04.580Z,24.90
2019-06-10T18:12:32.965Z,24.80
2019-06-10T18:14:58.697Z,24.80
2019-06-10T18:17:25.922Z,24.70
2019-06-10T18:19:53.276Z,24.60
2019-06-10T18:22:19.625Z,24.60
2019-06-10T18:24:45.759Z,24.50
2019-06-10T18:27:12.782Z,24.40
2019-06-10T18:29:39.088Z,24.00
2019-06-10T18:32:05.284Z,23.70
2019-06-10T18:34:34.574Z,23.30
2019-06-10T18:36:59.357Z,23.00
2019-06-10T18:39:25.419Z,22.80
2019-06-10T18:41:52.882Z,22.70
2019-06-10T18:44:23.263Z,22.60
2019-06-10T18:46:47.700Z,22.60
2019-06-10T18:49:13.824Z,22.60
2019-06-10T18:51:39.949Z,22.60
2019-06-10T18:54:06.044Z,22.50
2019-06-10T18:56:34.301Z,22.40
2019-06-10T18:59:13.483Z,22.30
2019-06-10T19:01:28.288Z,22.20
2019-06-10T19:03:54.399Z,22.10
2019-06-10T19:06:22.792Z,22.10
2019-06-10T19:08:48.451Z,22.10
2019-06-10T19:11:14.497Z,22.20
2019-06-10T19:13:43.328Z,22.20
2019-06-10T19:16:08.536Z,22.10
2019-06-10T19:18:36.000Z,22.20
2019-06-10T19:21:04.177Z,22.20
2019-06-10T19:23:30.334Z,22.20
2019-06-10T19:25:56.412Z,22.10
2019-06-10T19:28:23.015Z,22.10
2019-06-10T19:30:49.321Z,22.00
2019-06-10T19:33:15.384Z,21.90
2019-06-10T19:35:43.625Z,21.90
2019-06-10T19:38:09.447Z,21.90
2019-06-10T19:40:36.865Z,21.80
2019-06-10T19:43:03.486Z,21.90
2019-06-10T19:45:31.948Z,21.90
2019-06-10T19:47:57.620Z,21.90
2019-06-10T19:50:23.685Z,21.80
2019-06-10T19:52:51.639Z,21.70
2019-06-10T19:55:17.821Z,21.60
2019-06-10T19:57:43.975Z,21.50
2019-06-10T20:00:12.670Z,21.40
2019-06-10T20:02:39.848Z,21.30
2019-06-10T20:05:06.824Z,21.30
2019-06-10T20:07:33.982Z,21.20
2019-06-10T20:10:02.684Z,21.10
2019-06-10T20:12:28.124Z,21.10
2019-06-10T20:14:56.840Z,21.10
2019-06-10T20:17:22.774Z,21.10
2019-06-10T20:19:49.007Z,21.10
2019-06-10T20:22:15.085Z,21.00
2019-06-10T20:24:43.712Z,21.00
2019-06-10T20:27:09.092Z,20.90
2019-06-10T20:29:35.764Z,20.90
2019-06-10T20:32:02.440Z,20.90
2019-06-10T20:34:28.596Z,20.90
2019-06-10T20:36:54.674Z,20.90
2019-06-10T20:39:24.459Z,20.90
2019-06-10T20:41:52.289Z,20.90
2019-06-10T20:44:16.675Z,20.80
2019-06-10T20:46:43.483Z,20.80
2019-06-10T20:49:13.376Z,20.80
2019-06-10T20:51:50.262Z,20.80
2019-06-10T20:54:06.675Z,20.70
2019-06-10T20:56:33.666Z,20.70
2019-06-10T20:59:00.028Z,20.60
2019-06-10T21:01:26.181Z,20.60
2019-06-10T21:03:54.232Z,20.60
2019-06-10T21:06:22.518Z,20.50
2019-06-10T21:08:51.966Z,20.50
2019-06-10T21:11:18.128Z,20.50
2019-06-10T21:13:47.749Z,20.50
2019-06-10T21:16:12.599Z,20.40
2019-06-10T21:18:40.204Z,20.40
2019-06-10T21:21:06.495Z,20.30
2019-06-10T21:23:32.562Z,20.30
2019-06-10T21:25:58.608Z,20.20
2019-06-10T21:28:24.665Z,20.10
2019-06-10T21:43:08.608Z,19.90
2019-06-10T21:48:02.188Z,19.80
2019-06-10T21:50:28.777Z,19.80
2019-06-10T21:52:54.827Z,19.70
2019-06-10T21:55:22.462Z,19.70
2019-06-10T22:00:17.682Z,19.60
2019-06-10T22:02:45.146Z,19.60
2019-06-10T22:05:12.417Z,19.50
2019-06-10T22:07:38.564Z,19.50
2019-06-10T22:10:06.641Z,19.50
2019-06-10T22:12:32.691Z,19.50
2019-06-10T22:14:58.761Z,19.40
2019-06-10T22:17:24.825Z,19.40
2019-06-10T22:19:53.184Z,19.30
2019-06-10T22:22:18.846Z,19.30
2019-06-10T22:24:44.911Z,19.20
2019-06-10T22:27:12.881Z,19.20
2019-06-10T22:29:38.952Z,19.10
2019-06-10T22:32:05.002Z,19.10
2019-06-10T22:34:32.886Z,19.10
2019-06-10T22:36:59.123Z,19.00
2019-06-10T22:39:25.190Z,18.90
2019-06-10T22:41:53.687Z,18.80
2019-06-10T22:44:19.224Z,18.70
2019-06-10T22:46:45.284Z,18.70
2019-06-10T22:49:13.523Z,18.70
2019-06-10T22:51:39.303Z,18.70
2019-06-10T22:54:05.377Z,18.60
2019-06-10T22:56:31.428Z,18.60
2019-06-10T22:58:57.503Z,18.60
2019-06-10T23:01:33.876Z,18.50
2019-06-10T23:03:52.147Z,18.60
2019-06-10T23:06:18.372Z,18.50
2019-06-10T23:08:44.444Z,18.40
2019-06-10T23:11:12.934Z,18.40
2019-06-10T23:13:38.530Z,18.40
2019-06-10T23:16:04.703Z,18.30
2019-06-10T23:18:32.041Z,18.30
2019-06-10T23:20:59.664Z,18.30
2019-06-10T23:23:26.271Z,18.20
2019-06-10T23:25:53.677Z,18.20
2019-06-10T23:28:22.067Z,18.20
2019-06-10T23:30:47.987Z,18.20
2019-06-10T23:33:14.044Z,18.20
2019-06-10T23:35:42.674Z,18.20
2019-06-10T23:38:08.080Z,18.20
2019-06-10T23:40:34.154Z,18.20
2019-06-10T23:43:01.680Z,18.20
2019-06-10T23:45:28.196Z,18.20
2019-06-10T23:47:56.141Z,18.20
2019-06-10T23:50:22.627Z,18.10
2019-06-10T23:52:48.897Z,18.10
2019-06-10T23:55:15.063Z,18.10
2019-06-10T23:57:42.140Z,18.10
